createdAt,value
2022-12-08T00:01:26.907Z,21.20
2022-12-08T00:06:48.200Z,33.78
2022-12-08T00:11:44.587Z,21.05
2022-12-08T00:16:41.037Z,25.38
2022-12-08T00:21:37.551Z,27.42
2022-12-08T00:26:33.936Z,30.35
2022-12-08T00:31:30.429Z,26.65
2022-12-08T00:36:27.412Z,29.73
2022-12-08T00:41:44.907Z,31.75
2022-12-08T00:46:41.617Z,23.73
2022-12-08T00:51:38.576Z,27.30
2022-12-08T00:56:35.131Z,30.80
2022-12-08T01:01:32.338Z,28.65
2022-12-08T01:06:28.714Z,29.83
2022-12-08T01:11:25.216Z,34.08
2022-12-08T01:16:24.510Z,30.02
2022-12-08T01:21:21.910Z,33.95
2022-12-08T01:26:19.556Z,33.95
2022-12-08T01:31:19.758Z,30.45
2022-12-08T01:36:22.790Z,37.05
2022-12-08T01:41:22.279Z,38.83
2022-12-08T01:46:18.690Z,33.50
2022-12-08T01:51:15.443Z,31.25
2022-12-08T01:56:19.563Z,29.33
2022-12-08T02:01:16.526Z,31.33
2022-12-08T02:06:14.314Z,27.23
2022-12-08T02:11:12.242Z,35.63
2022-12-08T02:16:17.861Z,33.70
2022-12-08T02:21:23.130Z,30.98
2022-12-08T02:26:41.221Z,26.67
2022-12-08T02:31:53.062Z,20.33
2022-12-08T02:37:09.685Z,27.95
2022-12-08T02:42:14.896Z,23.08
2022-12-08T02:47:13.531Z,27.27
2022-12-08T02:52:13.036Z,30.20
2022-12-08T02:57:16.240Z,38.85
2022-12-08T03:02:19.590Z,35.65
2022-12-08T03:07:35.297Z,33.28
2022-12-08T03:12:38.191Z,37.08
2022-12-08T03:17:36.607Z,44.40
2022-12-08T03:22:33.376Z,34.30
2022-12-08T03:27:31.432Z,33.83
2022-12-08T03:32:34.680Z,30.37
2022-12-08T03:37:31.161Z,44.78
2022-12-08T03:42:27.529Z,41.35
2022-12-08T03:47:24.006Z,41.38
2022-12-08T03:52:20.392Z,39.80
2022-12-08T03:57:16.909Z,42.42
2022-12-08T04:02:13.322Z,47.33
2022-12-08T04:07:09.771Z,51.20
2022-12-08T04:12:06.423Z,47.00
2022-12-08T04:17:02.919Z,41.13
2022-12-08T04:21:59.308Z,48.00
2022-12-08T04:26:55.678Z,44.97
2022-12-08T04:31:52.112Z,47.33
2022-12-08T04:36:48.552Z,44.30
2022-12-08T04:41:44.928Z,42.63
2022-12-08T04:46:43.697Z,44.38
2022-12-08T04:56:36.867Z,43.08
2022-12-08T05:01:33.374Z,47.70
2022-12-08T05:06:29.914Z,46.70
2022-12-08T05:11:26.287Z,42.63
2022-12-08T05:16:22.747Z,39.88
2022-12-08T05:21:19.195Z,40.45
2022-12-08T05:26:15.868Z,42.20
2022-12-08T05:31:14.223Z,34.28
2022-12-08T05:36:13.778Z,37.75
2022-12-08T05:41:14.304Z,34.30
2022-12-08T05:46:11.203Z,35.35
2022-12-08T05:51:16.495Z,35.10
2022-12-08T05:56:12.975Z,34.22
2022-12-08T06:01:31.556Z,34.47
2022-12-08T06:06:28.764Z,33.60
2022-12-08T06:11:30.164Z,36.85
2022-12-08T06:16:28.373Z,40.70
2022-12-08T06:21:25.229Z,50.63
2022-12-08T06:26:22.476Z,47.65
2022-12-08T06:31:22.181Z,54.05
2022-12-08T06:36:21.386Z,54.10
2022-12-08T06:41:18.641Z,61.83
2022-12-08T06:46:17.569Z,52.58
2022-12-08T06:51:19.618Z,48.72
2022-12-08T06:56:17.016Z,56.08
2022-12-08T07:01:14.161Z,51.40
2022-12-08T07:06:20.975Z,52.85
2022-12-08T07:11:21.466Z,57.78
2022-12-08T07:16:19.059Z,58.08
2022-12-08T07:21:16.523Z,45.30
2022-12-08T07:26:13.377Z,52.38
2022-12-08T07:31:19.653Z,51.08
2022-12-08T07:36:16.403Z,43.92
2022-12-08T07:41:14.804Z,45.92
2022-12-08T07:46:13.285Z,42.88
2022-12-08T07:51:11.279Z,48.15
2022-12-08T07:56:08.561Z,40.00
2022-12-08T08:01:05.556Z,38.90
2022-12-08T08:06:03.795Z,41.97
2022-12-08T08:11:00.143Z,43.43
2022-12-08T08:16:06.091Z,37.15
2022-12-08T08:21:15.827Z,32.00
2022-12-08T08:26:18.920Z,30.33
2022-12-08T08:31:15.373Z,31.60
2022-12-08T08:36:12.027Z,31.35
2022-12-08T08:41:11.586Z,30.15
2022-12-08T08:46:09.134Z,29.17
2022-12-08T08:51:10.592Z,31.45
2022-12-08T08:56:11.983Z,32.55
2022-12-08T09:01:08.452Z,33.50
2022-12-08T09:06:05.039Z,32.50
2022-12-08T09:11:01.444Z,25.63
2022-12-08T09:15:57.916Z,30.33
2022-12-08T09:20:54.546Z,29.40
2022-12-08T09:25:50.907Z,27.77
2022-12-08T09:30:47.405Z,31.48
2022-12-08T09:35:43.891Z,33.03
2022-12-08T09:40:50.155Z,25.08
2022-12-08T09:45:47.952Z,29.25
2022-12-08T09:50:52.514Z,26.50
2022-12-08T09:55:55.324Z,23.83
2022-12-08T10:00:51.837Z,25.77
2022-12-08T10:06:07.303Z,26.73
2022-12-08T10:11:13.668Z,28.67
2022-12-08T10:16:34.174Z,22.10
2022-12-08T10:21:32.482Z,22.67
2022-12-08T10:26:32.574Z,21.58
2022-12-08T10:31:31.365Z,28.23
2022-12-08T10:41:40.950Z,18.73
2022-12-08T10:46:38.039Z,20.02
2022-12-08T10:51:34.469Z,17.13
2022-12-08T10:56:32.221Z,18.85
2022-12-08T11:01:34.787Z,17.05
2022-12-08T11:06:37.037Z,15.10
2022-12-08T11:11:46.058Z,15.93
2022-12-08T11:16:43.055Z,16.73
2022-12-08T11:21:39.507Z,14.00
2022-12-08T11:26:37.882Z,13.43
2022-12-08T11:31:44.284Z,11.68
2022-12-08T11:36:41.063Z,19.45
2022-12-08T11:41:42.884Z,13.70
2022-12-08T11:46:59.835Z,11.20
2022-12-08T11:52:16.475Z,11.23
2022-12-08T11:57:20.549Z,10.48
2022-12-08T12:02:20.905Z,12.15
2022-12-08T12:07:40.064Z,10.15
2022-12-08T12:12:45.437Z,10.10
2022-12-08T12:17:53.095Z,8.73
2022-12-08T12:22:56.474Z,9.52
2022-12-08T12:27:57.780Z,8.02
2022-12-08T12:32:58.349Z,10.25
2022-12-08T12:38:00.608Z,8.30
2022-12-08T12:42:56.925Z,8.27
2022-12-08T12:48:19.983Z,10.05
2022-12-08T12:53:16.346Z,9.25
2022-12-08T12:58:22.505Z,8.80
2022-12-08T13:03:19.052Z,8.75
2022-12-08T13:08:25.593Z,9.45
2022-12-08T13:13:22.204Z,8.18
2022-12-08T13:18:28.492Z,8.77
2022-12-08T13:23:43.663Z,6.85
2022-12-08T13:28:58.679Z,7.82
2022-12-08T13:33:55.646Z,7.22
2022-12-08T13:38:56.427Z,7.80
2022-12-08T13:44:50.856Z,7.43
2022-12-08T13:55:30.691Z,6.80
2022-12-08T14:00:20.331Z,5.55
2022-12-08T14:05:29.798Z,4.27
2022-12-08T14:10:36.721Z,6.35
2022-12-08T14:15:38.265Z,4.80
2022-12-08T14:20:57.750Z,4.80
2022-12-08T14:25:52.521Z,4.72
2022-12-08T14:30:50.187Z,4.65
2022-12-08T14:35:52.510Z,6.55
2022-12-08T14:41:00.962Z,6.35
2022-12-08T14:46:02.344Z,5.65
2022-12-08T14:51:23.703Z,7.30
2022-12-08T14:56:23.517Z,6.13
2022-12-08T15:01:23.370Z,6.63
2022-12-08T15:06:22.198Z,5.53
2022-12-08T15:11:21.369Z,8.55
2022-12-08T15:16:32.213Z,10.20
2022-12-08T15:21:30.391Z,6.45
2022-12-08T15:26:28.017Z,6.83
2022-12-08T15:31:24.428Z,9.82
2022-12-08T15:36:20.848Z,8.48
2022-12-08T15:41:17.217Z,9.68
2022-12-08T15:46:13.627Z,10.70
2022-12-08T15:51:10.070Z,10.80
2022-12-08T16:01:24.740Z,9.60
2022-12-08T16:12:06.366Z,11.30
2022-12-08T16:17:03.422Z,12.63
2022-12-08T16:28:00.255Z,13.30
2022-12-08T16:32:44.852Z,9.98
2022-12-08T16:37:41.338Z,13.05
2022-12-08T16:42:40.501Z,13.60
2022-12-08T16:47:38.053Z,11.65
2022-12-08T16:52:34.784Z,12.43
2022-12-08T16:57:31.159Z,15.32
2022-12-08T17:02:27.502Z,15.20
2022-12-08T17:07:23.937Z,18.30
2022-12-08T17:12:20.469Z,22.38
2022-12-08T17:17:16.912Z,21.35
2022-12-08T17:22:13.320Z,20.30
2022-12-08T17:27:09.729Z,21.08
2022-12-08T17:32:07.236Z,21.30
2022-12-08T17:37:03.746Z,26.60
2022-12-08T17:42:00.111Z,22.88
2022-12-08T17:46:56.840Z,22.55
2022-12-08T17:51:55.330Z,23.67
2022-12-08T17:56:51.904Z,22.33
2022-12-08T18:01:48.434Z,27.92
2022-12-08T18:06:44.955Z,27.90
2022-12-08T18:11:42.087Z,23.85
2022-12-08T18:16:41.515Z,24.73
2022-12-08T18:21:38.323Z,22.45
2022-12-08T18:26:35.089Z,24.85
2022-12-08T18:31:31.524Z,21.88
2022-12-08T18:36:27.920Z,27.85
2022-12-08T18:41:25.965Z,29.58
2022-12-08T18:46:23.143Z,26.87
2022-12-08T18:51:22.025Z,26.27
2022-12-08T19:06:14.287Z,32.85
2022-12-08T19:11:22.001Z,31.80
2022-12-08T19:16:18.431Z,35.28
2022-12-08T19:21:14.874Z,31.02
2022-12-08T19:26:12.040Z,33.20
2022-12-08T19:31:09.511Z,36.47
2022-12-08T19:36:13.455Z,34.20
2022-12-08T19:41:28.565Z,37.53
2022-12-08T19:46:26.215Z,31.65
2022-12-08T19:51:22.713Z,35.35
2022-12-08T19:56:19.067Z,36.28
2022-12-08T20:01:16.422Z,40.75
2022-12-08T20:06:15.939Z,37.00
2022-12-08T20:11:12.293Z,42.20
2022-12-08T20:16:08.771Z,44.58
2022-12-08T20:21:06.442Z,43.72
2022-12-08T20:26:08.543Z,46.08
2022-12-08T20:31:05.634Z,49.45
2022-12-08T20:36:04.987Z,43.92
2022-12-08T20:41:01.422Z,48.75
2022-12-08T20:45:57.846Z,50.97
2022-12-08T20:50:54.741Z,47.47
2022-12-08T20:55:51.161Z,49.47
2022-12-08T21:00:47.767Z,48.17
2022-12-08T21:05:52.100Z,51.90
2022-12-08T21:10:54.804Z,47.63
2022-12-08T21:15:51.598Z,51.95
2022-12-08T21:20:48.648Z,56.35
2022-12-08T21:25:47.239Z,53.88
2022-12-08T21:30:43.846Z,50.72
2022-12-08T21:35:40.365Z,52.78
2022-12-08T21:40:37.068Z,52.58
2022-12-08T21:45:34.339Z,51.42
2022-12-08T21:50:30.890Z,50.70
2022-12-08T21:55:27.683Z,52.22
2022-12-08T22:00:24.693Z,56.40
2022-12-08T22:05:21.301Z,53.78
2022-12-08T22:10:18.413Z,55.00
2022-12-08T22:15:15.076Z,49.03
2022-12-08T22:20:14.556Z,53.50
2022-12-08T22:25:12.057Z,57.63
2022-12-08T22:30:10.131Z,60.78
2022-12-08T22:35:07.354Z,53.38
2022-12-08T22:40:05.188Z,54.90
2022-12-08T22:45:02.011Z,59.00
2022-12-08T22:49:58.638Z,48.08
2022-12-08T22:54:55.218Z,50.55
2022-12-08T22:59:51.713Z,45.35
2022-12-08T23:04:48.284Z,36.42
2022-12-08T23:09:44.954Z,39.75
2022-12-08T23:14:41.490Z,41.28
2022-12-08T23:19:38.687Z,41.55
2022-12-08T23:24:35.067Z,39.70
2022-12-08T23:29:31.431Z,44.78
2022-12-08T23:34:27.805Z,45.40
2022-12-08T23:39:24.731Z,43.25
2022-12-08T23:44:21.167Z,44.00
2022-12-08T23:49:17.648Z,41.05
2022-12-08T23:54:14.211Z,40.45
2022-12-08T23:59:10.587Z,39.50
